createdAt,value
2019-03-02T00:01:03.330Z,37.25
2019-03-02T00:03:44.706Z,36.15
2019-03-02T00:06:25.312Z,36.60
2019-03-02T00:09:09.440Z,34.53
2019-03-02T00:11:52.908Z,36.03
2019-03-02T00:14:33.472Z,36.53
2019-03-02T00:17:15.398Z,38.23
2019-03-02T00:19:56.610Z,35.48
2019-03-02T00:22:39.687Z,34.95
2019-03-02T00:25:20.180Z,37.55
2019-03-02T00:28:00.716Z,37.27
2019-03-02T00:30:41.387Z,35.90
2019-03-02T00:33:22.224Z,36.17
2019-03-02T00:36:02.974Z,37.30
2019-03-02T00:38:44.340Z,36.77
2019-03-02T00:41:25.845Z,38.15
2019-03-02T00:44:07.108Z,36.63
2019-03-02T00:46:47.926Z,34.93
2019-03-02T00:49:28.622Z,34.53
2019-03-02T00:52:09.514Z,35.38
2019-03-02T00:54:58.080Z,35.38
2019-03-02T00:57:32.527Z,36.00
2019-03-02T01:00:15.242Z,35.85
2019-03-02T01:02:55.382Z,35.83
2019-03-02T01:05:36.523Z,35.50
2019-03-02T01:08:17.718Z,37.38
2019-03-02T01:10:59.029Z,40.17
2019-03-02T01:13:39.574Z,38.63
2019-03-02T01:16:21.075Z,36.88
2019-03-02T01:19:02.053Z,37.30
2019-03-02T01:21:42.898Z,37.83
2019-03-02T01:24:23.227Z,38.70
2019-03-02T01:27:03.729Z,36.90
2019-03-02T01:29:44.223Z,34.92
2019-03-02T01:32:24.716Z,36.23
2019-03-02T01:35:05.314Z,35.00
2019-03-02T01:37:46.135Z,34.25
2019-03-02T01:40:27.578Z,37.17
2019-03-02T01:43:08.844Z,35.20
2019-03-02T01:45:49.424Z,33.20
2019-03-02T01:48:30.139Z,33.28
2019-03-02T01:51:10.796Z,34.25
2019-03-02T01:53:51.379Z,34.53
2019-03-02T01:56:31.947Z,33.00
2019-03-02T01:59:12.461Z,32.53
2019-03-02T02:01:56.579Z,35.23
2019-03-02T02:04:36.067Z,33.38
2019-03-02T02:07:18.171Z,31.97
2019-03-02T02:10:00.171Z,33.73
2019-03-02T02:12:41.072Z,32.88
2019-03-02T02:15:21.862Z,33.55
2019-03-02T02:18:02.726Z,30.32
2019-03-02T02:20:43.072Z,31.82
2019-03-02T02:23:24.139Z,30.27
2019-03-02T02:26:07.666Z,33.10
2019-03-02T02:28:48.090Z,30.43
2019-03-02T02:31:29.191Z,31.57
2019-03-02T02:34:10.026Z,31.87
2019-03-02T02:36:53.246Z,32.25
2019-03-02T02:39:35.266Z,29.90
2019-03-02T02:42:16.336Z,31.02
2019-03-02T02:44:57.696Z,24.77
2019-03-02T02:47:38.605Z,26.82
2019-03-02T02:50:28.305Z,23.70
2019-03-02T02:53:06.937Z,22.67
2019-03-02T02:55:36.206Z,23.12
2019-03-02T02:58:22.777Z,25.05
2019-03-02T03:01:11.337Z,24.35
2019-03-02T03:04:00.794Z,22.73
2019-03-02T03:06:49.364Z,21.00
2019-03-02T03:12:38.837Z,22.70
2019-03-02T03:18:28.809Z,22.05
2019-03-02T03:21:09.859Z,22.43
2019-03-02T03:23:50.800Z,21.87
2019-03-02T03:26:35.295Z,22.43
2019-03-02T03:29:14.769Z,20.82
2019-03-02T03:31:43.529Z,21.63
2019-03-02T03:34:12.560Z,20.68
2019-03-02T03:37:00.753Z,20.68
2019-03-02T03:39:48.741Z,21.87
2019-03-02T03:42:36.948Z,20.43
2019-03-02T03:45:27.892Z,21.45
2019-03-02T03:48:17.900Z,21.00
2019-03-02T03:51:05.006Z,20.52
2019-03-02T03:53:53.272Z,19.55
2019-03-02T03:56:42.522Z,22.67
2019-03-02T03:59:31.540Z,19.60
2019-03-02T04:02:19.598Z,19.00
2019-03-02T04:05:09.795Z,19.15
2019-03-02T04:07:58.077Z,19.92
2019-03-02T04:10:46.407Z,20.48
2019-03-02T04:13:34.498Z,20.27
2019-03-02T04:16:24.287Z,21.95
2019-03-02T04:19:05.031Z,24.57
2019-03-02T04:21:46.496Z,24.18
2019-03-02T04:24:28.040Z,24.35
2019-03-02T04:27:11.139Z,24.05
2019-03-02T04:29:55.352Z,24.57
2019-03-02T04:32:33.773Z,26.30
2019-03-02T04:35:14.683Z,25.17
2019-03-02T04:37:56.675Z,26.48
2019-03-02T04:40:38.787Z,24.80
2019-03-02T04:43:19.583Z,26.07
2019-03-02T04:46:00.079Z,25.62
2019-03-02T04:48:40.980Z,25.67
2019-03-02T04:51:22.136Z,28.07
2019-03-02T04:54:03.082Z,28.80
2019-03-02T04:56:44.156Z,29.37
2019-03-02T04:59:24.995Z,29.98
2019-03-02T05:02:05.699Z,30.17
2019-03-02T05:04:46.654Z,30.52
2019-03-02T05:07:30.163Z,30.82
2019-03-02T05:10:10.101Z,30.60
2019-03-02T05:12:53.063Z,30.05
2019-03-02T05:15:33.495Z,29.30
2019-03-02T05:18:14.818Z,30.20
2019-03-02T05:20:57.276Z,30.97
2019-03-02T05:23:38.169Z,31.00
2019-03-02T05:29:18.556Z,29.10
2019-03-02T05:31:59.698Z,29.30
2019-03-02T05:34:40.661Z,31.20
2019-03-02T05:37:21.504Z,29.92
2019-03-02T05:40:02.120Z,29.63
2019-03-02T05:42:48.538Z,28.62
2019-03-02T05:45:26.180Z,29.48
2019-03-02T05:48:06.936Z,32.67
2019-03-02T05:50:47.392Z,29.87
2019-03-02T05:53:30.277Z,30.17
2019-03-02T05:56:11.068Z,28.87
2019-03-02T05:58:52.336Z,30.23
2019-03-02T06:01:32.675Z,30.57
2019-03-02T06:04:13.902Z,33.43
2019-03-02T06:06:55.461Z,32.25
2019-03-02T06:09:36.405Z,33.48
2019-03-02T06:12:17.473Z,31.23
2019-03-02T06:14:58.225Z,32.73
2019-03-02T06:17:38.640Z,34.35
2019-03-02T06:20:19.232Z,34.53
2019-03-02T06:23:00.032Z,33.33
2019-03-02T06:25:40.872Z,36.05
2019-03-02T06:28:23.012Z,33.98
2019-03-02T06:31:04.516Z,35.50
2019-03-02T06:33:45.384Z,37.07
2019-03-02T06:36:26.414Z,37.85
2019-03-02T06:39:07.857Z,39.17
2019-03-02T06:41:49.516Z,39.78
2019-03-02T06:44:30.853Z,42.35
2019-03-02T06:47:12.884Z,43.83
2019-03-02T06:49:59.048Z,44.20
2019-03-02T06:52:35.768Z,45.48
2019-03-02T06:55:16.209Z,46.63
2019-03-02T06:57:56.853Z,49.15
2019-03-02T07:00:37.681Z,48.60
2019-03-02T07:03:18.757Z,48.45
2019-03-02T07:05:59.543Z,54.15
2019-03-02T07:08:40.208Z,52.98
2019-03-02T07:11:20.954Z,52.90
2019-03-02T07:14:01.836Z,59.45
2019-03-02T07:16:42.476Z,60.88
2019-03-02T07:19:42.492Z,62.70
2019-03-02T07:22:22.902Z,69.75
2019-03-02T07:25:04.998Z,66.37
2019-03-02T07:27:46.323Z,73.20
2019-03-02T07:30:27.779Z,77.22
2019-03-02T07:33:08.408Z,79.20
2019-03-02T07:35:51.800Z,75.20
2019-03-02T07:38:31.305Z,75.40
2019-03-02T07:41:12.345Z,71.50
2019-03-02T07:43:52.780Z,74.37
2019-03-02T07:46:33.122Z,77.67
2019-03-02T07:49:14.277Z,76.57
2019-03-02T07:51:55.275Z,74.50
2019-03-02T07:54:38.910Z,77.00
2019-03-02T07:57:18.680Z,73.05
2019-03-02T08:00:02.120Z,69.22
2019-03-02T08:02:42.319Z,73.45
2019-03-02T08:05:23.584Z,68.52
2019-03-02T08:08:04.287Z,71.57
2019-03-02T08:10:45.080Z,67.78
2019-03-02T08:13:26.148Z,69.13
2019-03-02T08:18:53.792Z,67.13
2019-03-02T08:21:35.789Z,66.55
2019-03-02T08:24:17.532Z,67.17
2019-03-02T08:26:58.027Z,61.90
2019-03-02T08:29:38.715Z,63.17
2019-03-02T08:32:21.189Z,62.58
2019-03-02T08:35:05.637Z,64.60
2019-03-02T08:37:46.887Z,65.87
2019-03-02T08:40:27.245Z,63.68
2019-03-02T08:43:08.196Z,65.72
2019-03-02T08:45:49.052Z,62.83
2019-03-02T08:48:29.580Z,63.83
2019-03-02T08:51:10.497Z,65.67
2019-03-02T08:53:51.164Z,62.95
2019-03-02T08:56:32.011Z,63.13
2019-03-02T08:59:13.055Z,64.65
2019-03-02T09:01:54.931Z,63.40
2019-03-02T09:04:36.972Z,64.75
2019-03-02T09:07:17.444Z,63.33
2019-03-02T09:09:59.036Z,63.45
2019-03-02T09:12:40.528Z,62.58
2019-03-02T09:15:22.178Z,65.78
2019-03-02T09:18:03.232Z,64.20
2019-03-02T09:20:44.290Z,63.98
2019-03-02T09:23:25.113Z,65.47
2019-03-02T09:26:06.344Z,64.03
2019-03-02T09:28:47.561Z,63.13
2019-03-02T09:31:28.472Z,62.78
2019-03-02T09:34:09.452Z,62.53
2019-03-02T09:36:38.372Z,63.27
2019-03-02T09:39:08.935Z,63.35
2019-03-02T09:41:58.097Z,60.83
2019-03-02T09:44:46.929Z,58.43
2019-03-02T09:47:35.183Z,58.68
2019-03-02T09:50:23.848Z,61.92
2019-03-02T09:53:11.849Z,59.50
2019-03-02T09:55:59.878Z,63.13
2019-03-02T09:58:29.818Z,60.73
2019-03-02T10:01:18.993Z,62.88
2019-03-02T10:04:08.653Z,58.58
2019-03-02T10:06:58.004Z,62.08
2019-03-02T10:09:46.645Z,63.58
2019-03-02T10:12:34.957Z,60.23
2019-03-02T10:15:23.076Z,61.80
2019-03-02T10:17:51.972Z,61.80
2019-03-02T10:20:20.887Z,62.30
2019-03-02T10:22:50.072Z,62.93
2019-03-02T10:25:38.408Z,63.97
2019-03-02T10:28:30.034Z,59.25
2019-03-02T10:31:16.354Z,60.70
2019-03-02T10:34:06.386Z,62.17
2019-03-02T10:36:54.621Z,56.65
2019-03-02T10:39:42.423Z,59.58
2019-03-02T10:42:32.018Z,60.20
2019-03-02T10:45:20.673Z,60.20
2019-03-02T10:48:08.937Z,57.80
2019-03-02T10:50:59.143Z,61.42
2019-03-02T10:53:46.736Z,59.57
2019-03-02T10:56:36.474Z,57.10
2019-03-02T10:59:24.983Z,56.73
2019-03-02T11:02:16.701Z,57.62
2019-03-02T11:05:22.242Z,54.63
2019-03-02T11:08:29.385Z,54.85
2019-03-02T11:11:36.526Z,57.08
2019-03-02T11:14:43.579Z,55.60
2019-03-02T11:17:31.423Z,56.10
2019-03-02T11:20:24.372Z,55.27
2019-03-02T11:23:19.990Z,55.67
2019-03-02T11:26:08.530Z,57.73
2019-03-02T11:28:57.507Z,54.27
2019-03-02T11:31:57.864Z,54.45
2019-03-02T11:34:50.267Z,57.17
2019-03-02T11:37:49.550Z,55.63
2019-03-02T11:40:37.589Z,51.97
2019-03-02T11:43:36.843Z,51.70
2019-03-02T11:46:37.305Z,52.05
2019-03-02T11:49:38.472Z,50.73
2019-03-02T11:52:38.742Z,51.77
2019-03-02T11:55:36.553Z,49.67
2019-03-02T11:58:36.964Z,48.08
2019-03-02T12:01:36.884Z,47.98
2019-03-02T12:04:39.071Z,46.57
2019-03-02T12:07:41.917Z,57.33
2019-03-02T12:10:40.283Z,56.05
2019-03-02T12:13:31.532Z,56.08
2019-03-02T12:16:26.399Z,57.10
2019-03-02T12:19:19.181Z,57.05
2019-03-02T12:22:19.361Z,55.08
2019-03-02T12:25:19.072Z,52.98
2019-03-02T12:28:21.602Z,53.58
2019-03-02T12:31:11.341Z,49.65
2019-03-02T12:34:10.879Z,52.15
2019-03-02T12:36:58.736Z,41.92
2019-03-02T12:39:56.695Z,38.80
2019-03-02T12:43:04.137Z,38.33
2019-03-02T12:46:01.173Z,39.30
2019-03-02T12:49:11.048Z,41.23
2019-03-02T12:51:57.857Z,46.28
2019-03-02T12:55:04.880Z,46.97
2019-03-02T12:57:41.433Z,44.93
2019-03-02T13:00:48.874Z,47.70
2019-03-02T13:03:55.985Z,44.55
2019-03-02T13:07:03.055Z,43.95
2019-03-02T13:09:57.132Z,40.17
2019-03-02T13:13:04.180Z,41.33
2019-03-02T13:16:11.472Z,43.50
2019-03-02T13:19:17.836Z,45.85
2019-03-02T13:22:10.284Z,44.42
2019-03-02T13:25:05.692Z,44.73
2019-03-02T13:28:05.222Z,46.25
2019-03-02T13:31:07.800Z,42.62
2019-03-02T13:34:08.148Z,44.60
2019-03-02T13:37:17.048Z,40.05
2019-03-02T13:40:15.629Z,42.90
2019-03-02T13:43:24.574Z,40.08
2019-03-02T13:46:24.405Z,35.43
2019-03-02T13:49:24.266Z,33.07
2019-03-02T13:52:24.490Z,30.90
2019-03-02T13:55:13.570Z,23.07
2019-03-02T13:58:14.210Z,25.35
2019-03-02T14:01:15.422Z,26.55
2019-03-02T14:04:07.978Z,26.73
2019-03-02T14:07:11.152Z,31.97
2019-03-02T14:10:11.016Z,28.17
2019-03-02T14:13:05.346Z,30.68
2019-03-02T14:16:04.971Z,29.77
2019-03-02T14:19:05.855Z,29.05
2019-03-02T14:21:54.738Z,30.30
2019-03-02T14:24:48.195Z,27.82
2019-03-02T14:27:38.117Z,28.45
2019-03-02T14:30:26.190Z,26.20
2019-03-02T14:33:25.653Z,28.87
2019-03-02T14:36:12.472Z,25.72
2019-03-02T14:39:21.433Z,27.00
2019-03-02T14:42:28.921Z,27.53
2019-03-02T14:45:22.845Z,27.02
2019-03-02T14:48:29.740Z,25.60
2019-03-02T14:51:37.114Z,25.68
2019-03-02T14:54:44.428Z,25.02
2019-03-02T14:57:51.714Z,23.60
2019-03-02T15:01:02.694Z,25.50
2019-03-02T15:04:07.923Z,24.12
2019-03-02T15:07:18.392Z,25.12
2019-03-02T15:10:26.739Z,22.67
2019-03-02T15:13:26.061Z,22.05
2019-03-02T15:16:36.663Z,22.55
2019-03-02T15:19:34.849Z,22.95
2019-03-02T15:22:30.280Z,22.17
2019-03-02T15:25:17.497Z,18.92
2019-03-02T15:28:11.157Z,18.52
2019-03-02T15:31:11.067Z,20.20
2019-03-02T15:34:13.933Z,18.30
2019-03-02T15:37:12.755Z,18.35
2019-03-02T15:40:13.024Z,21.23
2019-03-02T15:43:13.496Z,16.15
2019-03-02T15:46:13.760Z,20.43
2019-03-02T15:49:10.567Z,17.35
2019-03-02T15:52:17.651Z,16.00
2019-03-02T15:55:12.897Z,14.58
2019-03-02T15:58:12.955Z,15.80
2019-03-02T16:01:23.151Z,15.95
2019-03-02T16:04:31.837Z,16.80
2019-03-02T16:07:38.759Z,13.93
2019-03-02T16:10:28.241Z,15.68
2019-03-02T16:13:35.323Z,15.77
2019-03-02T16:16:42.646Z,15.97
2019-03-02T16:19:36.341Z,13.05
2019-03-02T16:22:24.453Z,14.90
2019-03-02T16:25:21.931Z,16.80
2019-03-02T16:28:28.969Z,17.53
2019-03-02T16:31:28.245Z,15.10
2019-03-02T16:34:35.608Z,17.82
2019-03-02T16:37:42.665Z,15.45
2019-03-02T16:40:49.931Z,15.65
2019-03-02T16:43:44.444Z,15.32
2019-03-02T16:46:39.756Z,13.60
2019-03-02T16:49:46.932Z,16.77
2019-03-02T16:52:54.058Z,15.53
2019-03-02T16:56:01.182Z,15.88
2019-03-02T16:58:57.161Z,16.80
2019-03-02T17:02:04.276Z,13.90
2019-03-02T17:05:11.407Z,16.87
2019-03-02T17:08:18.490Z,16.40
2019-03-02T17:11:14.372Z,13.63
2019-03-02T17:14:21.759Z,15.00
2019-03-02T17:17:28.890Z,11.97
2019-03-02T17:20:22.704Z,13.73
2019-03-02T17:23:24.009Z,13.15
2019-03-02T17:26:09.025Z,14.68
2019-03-02T17:29:14.260Z,13.97
2019-03-02T17:32:21.383Z,15.40
2019-03-02T17:35:29.200Z,10.53
2019-03-02T17:38:37.613Z,8.73
2019-03-02T17:41:44.734Z,10.15
2019-03-02T17:44:38.749Z,8.28
2019-03-02T17:47:45.811Z,10.72
2019-03-02T17:50:58.325Z,10.45
2019-03-02T17:54:03.623Z,9.68
2019-03-02T17:57:14.002Z,10.23
2019-03-02T18:00:07.293Z,10.23
2019-03-02T18:03:13.993Z,9.85
2019-03-02T18:06:23.709Z,10.77
2019-03-02T18:09:23.971Z,11.03
2019-03-02T18:12:18.736Z,8.48
2019-03-02T18:15:26.755Z,10.88
2019-03-02T18:18:03.494Z,9.98
2019-03-02T18:20:44.513Z,9.15
2019-03-02T18:23:25.304Z,10.33
2019-03-02T18:26:06.186Z,12.90
2019-03-02T18:28:50.152Z,10.78
2019-03-02T18:31:29.624Z,10.98
2019-03-02T18:34:13.880Z,10.72
2019-03-02T18:36:54.849Z,13.50
2019-03-02T18:39:35.238Z,10.45
2019-03-02T18:42:16.124Z,10.93
2019-03-02T18:45:00.530Z,10.60
2019-03-02T18:47:40.172Z,8.70
2019-03-02T18:50:28.850Z,8.55
2019-03-02T18:53:08.900Z,9.93
2019-03-02T18:55:50.473Z,9.48
2019-03-02T18:58:31.491Z,8.85
2019-03-02T19:01:13.280Z,8.38
2019-03-02T19:03:42.114Z,10.68
2019-03-02T19:06:30.388Z,8.63
2019-03-02T19:12:13.301Z,7.90
2019-03-02T19:15:01.268Z,7.80
2019-03-02T19:17:49.270Z,8.65
2019-03-02T19:20:30.516Z,7.58
2019-03-02T19:23:11.768Z,7.08
2019-03-02T19:25:52.692Z,7.78
2019-03-02T19:28:33.364Z,6.92
2019-03-02T19:31:13.680Z,7.15
2019-03-02T19:33:55.101Z,6.33
2019-03-02T19:36:36.551Z,5.90
2019-03-02T19:39:17.480Z,7.03
2019-03-02T19:41:58.092Z,6.35
2019-03-02T19:44:39.114Z,6.78
2019-03-02T19:47:19.835Z,7.87
2019-03-02T19:50:01.001Z,6.53
2019-03-02T19:52:30.097Z,5.92
2019-03-02T19:55:18.412Z,6.78
2019-03-02T19:58:06.956Z,6.00
2019-03-02T20:00:55.006Z,5.47
2019-03-02T20:03:43.029Z,5.67
2019-03-02T20:06:31.007Z,5.85
2019-03-02T20:09:19.152Z,5.92
2019-03-02T20:12:07.235Z,5.58
2019-03-02T20:14:55.588Z,5.87
2019-03-02T20:17:43.964Z,6.25
2019-03-02T20:20:24.591Z,6.97
2019-03-02T20:23:04.935Z,6.80
2019-03-02T20:25:45.313Z,7.37
2019-03-02T20:28:26.283Z,7.22
2019-03-02T20:31:07.874Z,7.75
2019-03-02T20:33:49.006Z,8.30
2019-03-02T20:36:29.920Z,9.13
2019-03-02T20:39:10.807Z,7.57
2019-03-02T20:41:51.909Z,7.87
2019-03-02T20:44:32.872Z,7.20
2019-03-02T20:47:13.750Z,7.20
2019-03-02T20:49:54.587Z,7.60
2019-03-02T20:52:35.757Z,7.75
2019-03-02T20:55:16.725Z,8.08
2019-03-02T20:58:03.509Z,7.85
2019-03-02T21:00:46.142Z,8.08
2019-03-02T21:03:26.854Z,7.62
2019-03-02T21:06:08.228Z,7.60
2019-03-02T21:08:50.019Z,7.47
2019-03-02T21:11:30.589Z,7.67
2019-03-02T21:14:11.266Z,7.65
2019-03-02T21:16:52.257Z,7.53
2019-03-02T21:19:33.046Z,7.75
2019-03-02T21:22:14.112Z,7.58
2019-03-02T21:24:55.290Z,7.85
2019-03-02T21:27:36.601Z,7.78
2019-03-02T21:30:17.867Z,7.80
2019-03-02T21:32:58.673Z,7.20
2019-03-02T21:35:39.705Z,7.80
2019-03-02T21:38:20.234Z,7.95
2019-03-02T21:41:00.999Z,7.90
2019-03-02T21:43:41.840Z,7.63
2019-03-02T21:46:22.660Z,7.90
2019-03-02T21:49:03.444Z,7.67
2019-03-02T21:51:44.068Z,7.83
2019-03-02T21:54:24.701Z,7.60
2019-03-02T21:57:05.079Z,7.45
2019-03-02T21:59:46.178Z,8.00
2019-03-02T22:02:27.410Z,8.53
2019-03-02T22:05:07.829Z,8.58
2019-03-02T22:07:48.788Z,8.70
2019-03-02T22:10:32.497Z,8.35
2019-03-02T22:13:13.668Z,8.10
2019-03-02T22:15:54.555Z,8.35
2019-03-02T22:18:35.353Z,9.08
2019-03-02T22:21:16.052Z,8.80
2019-03-02T22:23:56.989Z,9.38
2019-03-02T22:26:37.552Z,9.98
2019-03-02T22:29:18.641Z,10.00
2019-03-02T22:31:59.857Z,10.70
2019-03-02T22:34:40.241Z,11.73
2019-03-02T22:37:20.985Z,12.35
2019-03-02T22:40:01.985Z,12.55
2019-03-02T22:42:42.552Z,13.90
2019-03-02T22:45:23.238Z,13.53
2019-03-02T22:48:03.973Z,14.03
2019-03-02T22:50:46.677Z,16.03
2019-03-02T22:53:27.273Z,15.93
2019-03-02T22:56:08.120Z,16.67
2019-03-02T22:58:47.719Z,18.17
2019-03-02T23:01:28.943Z,16.65
2019-03-02T23:04:09.764Z,15.78
2019-03-02T23:06:50.766Z,15.60
2019-03-02T23:09:31.454Z,14.70
2019-03-02T23:12:12.517Z,14.70
2019-03-02T23:14:53.870Z,15.08
2019-03-02T23:17:34.868Z,14.30
2019-03-02T23:20:15.854Z,15.25
2019-03-02T23:22:57.129Z,14.40
2019-03-02T23:25:37.935Z,15.00
2019-03-02T23:28:19.005Z,15.55
2019-03-02T23:31:00.358Z,14.58
2019-03-02T23:33:41.197Z,15.85
2019-03-02T23:36:22.364Z,17.80
2019-03-02T23:39:03.715Z,16.27
2019-03-02T23:41:45.116Z,15.83
2019-03-02T23:44:26.283Z,17.15
2019-03-02T23:47:07.572Z,17.48
2019-03-02T23:49:48.403Z,17.90
2019-03-02T23:52:29.690Z,15.93
2019-03-02T23:55:10.648Z,16.90
2019-03-02T23:57:51.231Z,15.23
